^^
Station Historical Data
Daily Summary for February 5, 2018 Units:  Metric    English   Both
« Previous Day
Next Day »
Daily Weekly Monthly Yearly Custom
  High: Low: Average:
Temperature: -17.8 °C 22.9 °C 29.6 °C
Dew Point: -17.8 °C -6.2 °C 1.8 °C
Humidity: Humidity% 6% 18%
Wind Speed: 0km/h 0km/h 3.9km/h
Wind Gust: 0km/h - -
Wind- - SW
Pressure: 0 hPa 998.5 hPa -
Precipitation: 2.29 mm    
Historical Graphs
 
 
Tabular Data for February 5, 2018
Time Temperature Dew Point Pressure Wind Wind Speed Wind Gust Humidity Rainfall Rate (Hourly) solar Conditions
-17.8 °C -17.8 °C 0 hPa Calm     Humidity% 0 mm SolarRadiationWatts/m^2 W/m2 Conditions
02:04 27.7 °C 2 °C 1002.9 hPa SW 7.9 km/h 9.7 km/h 19% 0 mm 0.0 W/m2
02:09 27.4 °C 2.5 °C 1002.9 hPa SW 3.2 km/h 8 km/h 20% 0 mm 0.0 W/m2
02:14 27 °C 2.8 °C 1002.9 hPa SW 7.9 km/h 8 km/h 21% 0 mm 0.0 W/m2
02:19 26.7 °C 2.6 °C 1002.9 hPa SW 6.4 km/h 8 km/h 21% 0 mm 0.0 W/m2
02:24 26.7 °C 2.6 °C 1002.9 hPa SW 7.9 km/h 12.9 km/h 21% 0 mm 0.0 W/m2
02:29 27 °C 2.8 °C 1002.9 hPa SW 7.9 km/h 11.3 km/h 21% 0 mm 0.0 W/m2
02:34 27.1 °C 2.2 °C 1002.9 hPa SW 9.7 km/h 11.3 km/h 20% 0 mm 0.0 W/m2
02:39 27.1 °C 2.2 °C 1002.6 hPa SW 9.7 km/h 11.3 km/h 20% 0 mm 0.0 W/m2
02:44 27 °C 2.1 °C 1002.6 hPa SW 7.9 km/h 11.3 km/h 20% 0 mm 0.0 W/m2
02:50 26.9 °C 2 °C 1002.6 hPa SW 7.9 km/h 11.3 km/h 20% 0 mm 0.0 W/m2
02:55 26.8 °C 2 °C 1002.6 hPa SW 7.9 km/h 9.7 km/h 20% 0 mm 0.0 W/m2
03:00 27 °C 2.1 °C 1002.6 hPa SW 7.9 km/h 11.3 km/h 20% 0 mm 0.0 W/m2
03:06 27.2 °C 2.3 °C 1002.6 hPa SW 9.7 km/h 9.7 km/h 20% 0 mm 0.0 W/m2
03:11 27.2 °C 2.3 °C 1002.6 hPa SW 7.9 km/h 12.9 km/h 20% 0 mm 0.0 W/m2
03:16 27.2 °C 2.3 °C 1002.6 hPa SW 6.4 km/h 8 km/h 20% 0 mm 0.0 W/m2
03:21 27.1 °C 2.2 °C 1002.6 hPa SW 6.4 km/h 8 km/h 20% 0 mm 0.0 W/m2
03:26 26.9 °C 2 °C 1002.6 hPa SW 6.4 km/h 9.7 km/h 20% 0 mm 0.0 W/m2
03:31 26.8 °C 2 °C 1002.6 hPa SW 6.4 km/h 8 km/h 20% 0 mm 0.0 W/m2
03:36 26.6 °C 1.8 °C 1002.3 hPa SW 1.4 km/h 4.8 km/h 20% 0 mm 0.0 W/m2
03:41 26.4 °C 1.6 °C 1002.3 hPa Calm     20% 0 mm 0.0 W/m2
03:46 26.1 °C 2.1 °C 1002.3 hPa Calm     21% 0 mm 0.0 W/m2
03:51 25.9 °C 1.9 °C 1002.3 hPa Calm     21% 0 mm 0.0 W/m2
03:57 25.8 °C 1.8 °C 1002.3 hPa Calm     21% 0 mm 0.0 W/m2
04:02 25.6 °C 1.6 °C 1002.3 hPa Calm     21% 0 mm 0.0 W/m2
04:07 25.6 °C 1.6 °C 1002.3 hPa Calm     21% 0 mm 0.0 W/m2
04:13 25.6 °C 1.6 °C 1002.3 hPa Calm     21% 0 mm 0.0 W/m2
04:18 25.3 °C 2.1 °C 1002.3 hPa Calm     22% 0 mm 0.0 W/m2
04:23 25.2 °C 2 °C 1002.3 hPa Calm     22% 0 mm 0.0 W/m2
04:29 24.9 °C 1.1 °C 1002.3 hPa Calm     21% 0 mm 0.0 W/m2
04:34 24.8 °C 1.6 °C 1002.3 hPa Calm     22% 0 mm 0.0 W/m2
04:39 24.6 °C 1.5 °C 1002.3 hPa Calm     22% 0 mm 0.0 W/m2
04:44 24.4 °C 1.3 °C 1002.3 hPa Calm     22% 0 mm 0.0 W/m2
04:50 24.3 °C 1.8 °C 1002.3 hPa Calm     23% 0 mm 0.0 W/m2
04:55 24.1 °C 1.7 °C 1002.3 hPa Calm     23% 0 mm 0.0 W/m2
05:00 23.9 °C 0.9 °C 1002.3 hPa Calm     22% 0 mm 0.0 W/m2
05:05 23.7 °C 1.3 °C 1002.3 hPa Calm     23% 0 mm 0.0 W/m2
05:10 23.6 °C 1.3 °C 1002.3 hPa Calm     23% 0 mm 0.0 W/m2
05:15 23.4 °C 1.1 °C 1002.3 hPa Calm     23% 0 mm 0.0 W/m2
05:22 23.2 °C 0.9 °C 1002.3 hPa Calm     23% 0 mm 0.0 W/m2
05:27 23 °C 1.3 °C 1002.3 hPa Calm     24% 0 mm 0.0 W/m2
05:32 22.9 °C 1.8 °C 1002.3 hPa Calm     25% 0 mm 0.0 W/m2
05:38 23 °C 1.3 °C 1002.6 hPa Calm     24% 0 mm 0.0 W/m2
05:44 22.9 °C 1.3 °C 1002.6 hPa Calm     24% 0 mm 0.0 W/m2
05:49 23 °C 1.9 °C 1002.6 hPa Calm     25% 0 mm 0.0 W/m2
05:55 23.4 °C 2.2 °C 1002.6 hPa Calm     25% 0 mm 0.0 W/m2
06:01 23.6 °C 1.8 °C 1002.6 hPa Calm     24% 0 mm 0.0 W/m2
06:13 23.3 °C 1.6 °C 1002.6 hPa Calm     24% 0 mm 0.0 W/m2
06:25 23.1 °C 1.4 °C 1002.6 hPa Calm     24% 0 mm 0.0 W/m2
06:38 22.9 °C 1.3 °C 1002.9 hPa Calm     24% 0 mm 12.0 W/m2
06:48 22.9 °C 1.3 °C 1002.9 hPa Calm     24% 0 mm 26.0 W/m2
06:59 23.1 °C 2 °C 1002.9 hPa Calm     25% 0 mm 51.0 W/m2
07:11 23.6 °C 2.4 °C 1002.9 hPa Calm     25% 0 mm 81.0 W/m2
07:20 25.2 °C 2 °C 1003.3 hPa Calm     22% 0 mm 134.0 W/m2
07:36 26.4 °C 3 °C 1003.3 hPa Calm     22% 0 mm 169.0 W/m2
07:46 27.3 °C 3.1 °C 1003.3 hPa Calm     21% 0 mm 239.0 W/m2
08:01 28.7 °C 2.8 °C 1003.3 hPa Calm     19% 0 mm 297.0 W/m2
08:08 28.7 °C 2.8 °C 1003.3 hPa Calm     19% 0 mm 297.0 W/m2
08:17 29.8 °C 2.9 °C 1002.9 hPa Calm     18% 0 mm 338.0 W/m2
08:32 30.4 °C 2.6 °C 1002.9 hPa Calm     17% 0 mm 401.0 W/m2
08:54 31.2 °C 0.5 °C 1002.9 hPa Calm     14% 0 mm 459.0 W/m2
09:10 31.7 °C -0.1 °C 1002.9 hPa Calm     13% 0 mm 508.0 W/m2
09:26 32.9 °C -1.5 °C 1002.9 hPa Calm     11% 0 mm 563.0 W/m2
09:42 33.6 °C -2.2 °C 1002.9 hPa Calm     10% 0 mm 612.0 W/m2
10:01 34.4 °C -3 °C 1002.9 hPa Calm     9% 0 mm 675.0 W/m2
10:14 35.6 °C -3.7 °C 1002.9 hPa Calm     8% 0 mm 717.0 W/m2
10:20 35.7 °C -3.6 °C 1002.6 hPa Calm     8% 0 mm 745.0 W/m2
10:34 36.3 °C -5 °C 1002.6 hPa WSW 3.2 km/h 9.7 km/h 7% 0 mm 770.0 W/m2
10:40 36.6 °C -4.8 °C 1002.6 hPa WSW 1.4 km/h 8 km/h 7% 0 mm 796.0 W/m2
10:50 37.2 °C -4.3 °C 1002.6 hPa Calm   6.4 km/h 7% 0 mm 821.0 W/m2
10:54 37.2 °C -4.3 °C 1002.6 hPa Calm   6.4 km/h 7% 0 mm 821.0 W/m2
11:04 37.4 °C -6.2 °C 1002.6 hPa Calm   3.2 km/h 6% 0 mm 844.0 W/m2
11:13 37.6 °C -4 °C 1002.3 hPa Calm   9.7 km/h 7% 0 mm 858.0 W/m2
11:21 37.7 °C -4 °C 1002.3 hPa WNW 4.7 km/h 6.4 km/h 7% 0 mm 877.0 W/m2
12:40 39.6 °C -4.7 °C 1001.2 hPa North 14.3 km/h 22.5 km/h 6% 0 mm 962.0 W/m2
12:51 39.9 °C -4.4 °C 1001.2 hPa North 3.2 km/h 12.9 km/h 6% 0 mm 962.0 W/m2
13:06 40.1 °C -4.3 °C 1000.9 hPa North 6.4 km/h 14.5 km/h 6% 0 mm 912.0 W/m2
13:21 40.7 °C -1.8 °C 1000.9 hPa North 9.7 km/h 20.9 km/h 7% 0 mm 997.0 W/m2
13:36 40.4 °C -2 °C 1000.6 hPa Calm   11.3 km/h 7% 0 mm 983.0 W/m2
13:46 40.7 °C -1.8 °C 1000.2 hPa NNW 20.9 km/h 20.9 km/h 7% 0 mm 963.0 W/m2
13:57 40.7 °C -1.8 °C 1000.2 hPa Calm   25.7 km/h 7% 0 mm 944.0 W/m2
14:06 40.8 °C 0.1 °C 1000.2 hPa Calm   14.5 km/h 8% 0 mm 891.0 W/m2
14:21 40.9 °C 0.2 °C 999.9 hPa NNW 9.7 km/h 14.5 km/h 8% 0 mm 849.0 W/m2
14:42 41 °C 1.9 °C 999.5 hPa NNW 1.4 km/h 17.7 km/h 9% 0 mm 882.0 W/m2
14:59 41.3 °C 0.5 °C 999.5 hPa North 7.9 km/h 14.5 km/h 8% 0 mm 889.0 W/m2
15:14 41 °C 1.9 °C 999.2 hPa North 1.4 km/h 16.1 km/h 9% 0 mm 782.0 W/m2
15:26 40.7 °C 1.7 °C 998.5 hPa North 6.4 km/h 12.9 km/h 9% 0 mm 860.0 W/m2
15:34 40.5 °C 1.5 °C 998.5 hPa Calm   9.7 km/h 9% 0 mm 197.0 W/m2
18:03 31.9 °C 12.2 °C 1000.6 hPa NW 14.3 km/h 41.8 km/h 30% 0 mm 51.0 W/m2
18:14 31.8 °C 12.6 °C 1001.2 hPa NNE 19.5 km/h 27.4 km/h 31% 0 mm 35.0 W/m2
18:29 32.1 °C 11.8 °C 1001.2 hPa NW 13 km/h 27.4 km/h 29% 0 mm 26.0 W/m2
18:44 32 °C 11.2 °C 1000.6 hPa NW 13 km/h 46.7 km/h 28% 0 mm 18.0 W/m2
19:00 31.4 °C 11.2 °C 1001.2 hPa NNW 13 km/h 29 km/h 29% 0 mm 12.0 W/m2
19:09 34.1 °C 6.4 °C 1000.2 hPa West 32 km/h 62.8 km/h 18% 0 mm 9.0 W/m2
19:28 35.2 °C 6.5 °C 1000.9 hPa West 13 km/h 25.7 km/h 17% 0 mm 5.0 W/m2
19:34 33.8 °C 9.8 °C 1001.6 hPa NNE 9.7 km/h 12.9 km/h 23% 0 mm 0.0 W/m2
19:50 32.8 °C 10.2 °C 1001.9 hPa NNW 19.5 km/h 25.7 km/h 25% 0 mm 0.0 W/m2
19:59 31.8 °C 10.5 °C 1002.3 hPa NNW 3.2 km/h 12.9 km/h 27% 0 mm 0.0 W/m2
20:15 31.7 °C 10.4 °C 1002.6 hPa Calm     27% 0 mm 0.0 W/m2
20:31 32.2 °C 7.8 °C 1002.6 hPa SW 9.7 km/h 22.5 km/h 22% 0 mm 0.0 W/m2
20:46 32.3 °C 7.9 °C 1003.3 hPa SSW 3.2 km/h 14.5 km/h 22% 0 mm 0.0 W/m2
20:58 31.9 °C 7.5 °C 1003.6 hPa Calm   6.4 km/h 22% 0 mm 0.0 W/m2
21:07 31.7 °C 8.7 °C 1003.9 hPa Calm     24% 0 mm 0.0 W/m2
21:16 31.7 °C 8 °C 1003.6 hPa South 11.1 km/h 11.3 km/h 23% 0 mm 0.0 W/m2
Canyon Roadhouse, Fishriver Canyon, Namibia
Compliments of Weather Underground - 2.25 mb